createdAt,value
2022-09-05T00:00:31.630Z,92.90
2022-09-05T00:03:15.693Z,92.90
2022-09-05T00:06:12.418Z,93.00
2022-09-05T00:08:48.608Z,92.80
2022-09-05T00:11:40.387Z,93.30
2022-09-05T00:14:51.607Z,92.80
2022-09-05T00:19:14.752Z,93.00
2022-09-05T00:24:19.194Z,93.10
2022-09-05T00:24:37.161Z,93.20
2022-09-05T00:27:04.094Z,93.40
2022-09-05T00:31:05.440Z,93.60
2022-09-05T00:32:46.012Z,94.10
2022-09-05T00:35:12.928Z,94.20
2022-09-05T00:37:49.290Z,94.30
2022-09-05T00:40:34.283Z,94.60
2022-09-05T00:43:22.020Z,94.50
2022-09-05T00:45:59.860Z,94.40
2022-09-05T00:48:42.651Z,94.50
2022-09-05T00:51:29.256Z,94.50
2022-09-05T00:54:41.047Z,94.80
2022-09-05T00:57:30.732Z,95.00
2022-09-05T01:00:22.904Z,94.90
2022-09-05T01:03:27.312Z,95.10
2022-09-05T01:06:31.706Z,95.50
2022-09-05T01:09:14.965Z,95.70
2022-09-05T01:12:03.603Z,95.40
2022-09-05T01:14:58.607Z,95.50
2022-09-05T01:17:37.825Z,95.60
2022-09-05T01:20:29.860Z,95.80
2022-09-05T01:23:01.617Z,95.90
2022-09-05T01:25:44.043Z,96.30
2022-09-05T01:29:14.147Z,96.30
2022-09-05T01:31:05.796Z,96.20
2022-09-05T01:33:55.851Z,96.10
2022-09-05T01:36:52.180Z,96.00
2022-09-05T01:40:11.293Z,96.00
2022-09-05T01:43:01.641Z,96.30
2022-09-05T01:45:47.457Z,96.30
2022-09-05T01:48:17.539Z,96.40
2022-09-05T01:50:48.691Z,96.30
2022-09-05T01:53:32.169Z,96.10
2022-09-05T01:56:36.381Z,96.20
2022-09-05T01:59:18.786Z,96.50
2022-09-05T02:02:13.538Z,97.50
2022-09-05T02:05:16.098Z,99.00
2022-09-05T02:08:19.928Z,99.50
2022-09-05T02:10:46.874Z,99.40
2022-09-05T02:13:13.880Z,99.50
2022-09-05T02:16:00.326Z,99.50
2022-09-05T02:18:54.920Z,99.80
2022-09-05T02:21:31.756Z,99.90
2022-09-05T02:24:18.246Z,99.90
2022-09-05T02:27:04.174Z,99.90
2022-09-05T02:29:46.691Z,99.90
2022-09-05T02:32:18.856Z,99.90
2022-09-05T02:34:57.270Z,99.90
2022-09-05T02:37:55.936Z,99.90
2022-09-05T02:45:06.638Z,99.90
2022-09-05T02:45:24.229Z,99.30
2022-09-05T02:46:36.956Z,98.90
2022-09-05T02:50:48.764Z,98.60
2022-09-05T02:57:28.063Z,98.60
2022-09-05T02:57:37.040Z,98.70
2022-09-05T02:58:14.629Z,99.10
2022-09-05T03:00:51.028Z,99.50
2022-09-05T03:03:35.663Z,99.60
2022-09-05T03:06:09.969Z,99.80
2022-09-05T03:08:50.123Z,99.90
2022-09-05T03:11:58.790Z,99.90
2022-09-05T03:15:23.645Z,99.90
2022-09-05T03:18:20.167Z,99.90
2022-09-05T03:21:09.675Z,99.80
2022-09-05T03:24:04.452Z,99.70
2022-09-05T03:26:43.584Z,99.90
2022-09-05T03:29:37.696Z,99.90
2022-09-05T03:32:23.143Z,99.90
2022-09-05T03:35:34.159Z,99.90
2022-09-05T03:38:30.087Z,99.90
2022-09-05T03:41:40.007Z,99.90
2022-09-05T03:44:32.581Z,99.90
2022-09-05T03:47:27.032Z,99.90
2022-09-05T03:54:36.157Z,99.90
2022-09-05T03:57:12.924Z,99.80
2022-09-05T03:57:20.407Z,99.90
2022-09-05T03:59:15.374Z,99.90
2022-09-05T04:03:30.783Z,99.90
2022-09-05T04:08:18.634Z,99.90
2022-09-05T04:08:28.343Z,99.90
2022-09-05T04:10:36.167Z,99.90
2022-09-05T04:13:31.605Z,99.90
2022-09-05T04:16:11.126Z,99.90
2022-09-05T04:18:44.286Z,99.90
2022-09-05T04:21:32.673Z,99.90
2022-09-05T04:24:02.249Z,99.80
2022-09-05T04:26:47.605Z,99.90
2022-09-05T04:29:35.748Z,99.70
2022-09-05T04:32:33.633Z,99.90
2022-09-05T04:35:55.520Z,99.90
2022-09-05T04:38:38.586Z,99.90
2022-09-05T04:41:15.918Z,99.90
2022-09-05T04:43:55.294Z,99.90
2022-09-05T04:46:25.290Z,99.90
2022-09-05T04:49:06.623Z,99.90
2022-09-05T04:52:00.755Z,99.90
2022-09-05T04:54:36.127Z,99.90
2022-09-05T04:57:21.434Z,99.90
2022-09-05T05:03:27.508Z,99.90
2022-09-05T05:06:02.739Z,99.90
2022-09-05T05:06:22.189Z,99.90
2022-09-05T05:08:44.535Z,99.90
2022-09-05T05:16:06.321Z,99.90
2022-09-05T05:18:12.787Z,99.90
2022-09-05T05:18:14.834Z,99.90
2022-09-05T05:20:43.792Z,99.90
2022-09-05T05:23:16.766Z,99.90
2022-09-05T05:25:57.247Z,99.90
2022-09-05T05:28:39.016Z,99.90
2022-09-05T05:31:30.698Z,99.90
2022-09-05T05:34:24.374Z,99.90
2022-09-05T05:37:29.403Z,99.90
2022-09-05T05:40:11.327Z,99.90
2022-09-05T05:42:40.803Z,99.90
2022-09-05T05:45:28.302Z,99.90
2022-09-05T05:48:04.248Z,99.90
2022-09-05T05:50:57.574Z,99.90
2022-09-05T05:54:01.856Z,99.90
2022-09-05T05:56:46.948Z,99.90
2022-09-05T05:59:57.539Z,99.90
2022-09-05T06:02:32.312Z,99.90
2022-09-05T06:05:24.569Z,99.90
2022-09-05T06:11:06.029Z,99.90
2022-09-05T06:14:51.958Z,99.90
2022-09-05T06:14:57.126Z,99.90
2022-09-05T06:17:12.913Z,99.90
2022-09-05T06:21:18.166Z,99.90
2022-09-05T06:22:48.115Z,99.90
2022-09-05T06:25:45.226Z,99.90
2022-09-05T06:28:30.770Z,99.90
2022-09-05T06:31:31.771Z,99.70
2022-09-05T06:34:07.792Z,99.60
2022-09-05T06:37:21.393Z,99.50
2022-09-05T06:40:00.714Z,99.20
2022-09-05T06:42:43.487Z,99.20
2022-09-05T06:45:58.846Z,99.10
2022-09-05T06:48:45.606Z,98.80
2022-09-05T06:51:44.775Z,98.80
2022-09-05T06:55:16.148Z,98.90
2022-09-05T06:58:27.948Z,98.60
2022-09-05T07:01:01.624Z,98.50
2022-09-05T07:04:00.352Z,98.40
2022-09-05T07:07:06.607Z,98.40
2022-09-05T07:09:52.223Z,98.10
2022-09-05T07:12:40.881Z,98.00
2022-09-05T07:15:14.133Z,97.90
2022-09-05T07:18:10.139Z,97.70
2022-09-05T07:21:17.766Z,97.50
2022-09-05T07:24:34.632Z,97.10
2022-09-05T07:27:41.985Z,96.90
2022-09-05T07:30:23.055Z,96.40
2022-09-05T07:32:54.098Z,96.10
2022-09-05T07:35:31.246Z,95.80
2022-09-05T07:38:19.816Z,95.60
2022-09-05T07:40:58.337Z,95.20
2022-09-05T07:43:40.117Z,95.30
2022-09-05T07:46:13.171Z,95.10
2022-09-05T07:49:12.379Z,94.80
2022-09-05T07:56:54.261Z,94.60
2022-09-05T07:57:04.916Z,94.60
2022-09-05T07:57:51.984Z,94.60
2022-09-05T08:00:26.670Z,94.10
2022-09-05T08:02:59.511Z,94.10
2022-09-05T08:05:35.214Z,94.00
2022-09-05T08:08:08.677Z,93.70
2022-09-05T08:11:24.842Z,93.90
2022-09-05T08:13:42.815Z,93.90
2022-09-05T08:16:17.718Z,93.80
2022-09-05T08:19:15.044Z,93.50
2022-09-05T08:21:50.297Z,93.10
2022-09-05T08:24:27.119Z,92.90
2022-09-05T08:27:22.913Z,93.00
2022-09-05T08:30:24.501Z,93.00
2022-09-05T08:33:10.985Z,92.60
2022-09-05T08:35:43.448Z,92.40
2022-09-05T08:38:13.660Z,92.30
2022-09-05T08:41:04.740Z,91.80
2022-09-05T08:46:42.293Z,91.30
2022-09-05T08:47:12.180Z,91.40
2022-09-05T08:50:14.312Z,91.30
2022-09-05T08:52:50.470Z,90.50
2022-09-05T08:55:17.445Z,90.10
2022-09-05T08:58:16.407Z,90.10
2022-09-05T09:01:00.161Z,89.50
2022-09-05T09:03:52.366Z,88.90
2022-09-05T09:06:28.888Z,89.50
2022-09-05T09:09:15.655Z,89.00
2022-09-05T09:11:51.476Z,86.70
2022-09-05T09:14:30.932Z,85.80
2022-09-05T09:17:19.810Z,84.10
2022-09-05T09:20:17.642Z,83.50
2022-09-05T09:22:54.575Z,82.30
2022-09-05T09:25:30.720Z,83.00
2022-09-05T09:28:49.965Z,81.20
2022-09-05T09:31:33.444Z,79.00
2022-09-05T09:34:08.845Z,80.70
2022-09-05T09:36:45.021Z,80.60
2022-09-05T09:39:39.323Z,79.30
2022-09-05T09:42:34.162Z,79.30
2022-09-05T09:45:27.652Z,76.70
2022-09-05T09:48:10.915Z,75.80
2022-09-05T09:51:07.438Z,74.30
2022-09-05T09:54:12.383Z,75.00
2022-09-05T09:57:15.919Z,74.50
2022-09-05T09:59:54.633Z,72.80
2022-09-05T10:06:30.305Z,73.70
2022-09-05T10:10:49.589Z,72.40
2022-09-05T10:10:54.222Z,72.80
2022-09-05T10:12:06.265Z,72.60
2022-09-05T10:15:30.760Z,71.90
2022-09-05T10:18:25.480Z,70.60
2022-09-05T10:21:17.862Z,69.70
2022-09-05T10:23:53.692Z,69.00
2022-09-05T10:26:51.714Z,70.10
2022-09-05T10:29:37.470Z,68.90
2022-09-05T10:35:05.078Z,68.60
2022-09-05T10:35:22.543Z,68.50
2022-09-05T10:38:25.373Z,67.00
2022-09-05T10:41:20.282Z,66.80
2022-09-05T10:44:04.706Z,66.20
2022-09-05T10:47:09.974Z,66.80
2022-09-05T10:49:44.676Z,65.30
2022-09-05T10:52:19.048Z,66.20
2022-09-05T10:55:14.634Z,66.10
2022-09-05T10:57:54.821Z,65.20
2022-09-05T11:02:24.542Z,65.50
2022-09-05T11:03:55.881Z,65.60
2022-09-05T11:06:57.128Z,63.90
2022-09-05T11:09:46.829Z,65.60
2022-09-05T11:12:37.205Z,65.00
2022-09-05T11:15:32.107Z,64.30
2022-09-05T11:18:55.162Z,64.20
2022-09-05T12:03:58.969Z,64.50
2022-09-05T12:07:07.339Z,61.40
2022-09-05T12:10:46.446Z,62.90
2022-09-05T12:16:40.541Z,59.70
2022-09-05T12:19:27.046Z,59.80
2022-09-05T12:22:33.298Z,60.00
2022-09-05T12:27:42.630Z,59.10
2022-09-05T12:29:27.321Z,59.30
2022-09-05T12:32:31.100Z,58.30
2022-09-05T12:36:05.167Z,57.40
2022-09-05T12:40:36.862Z,58.10
2022-09-05T12:41:42.574Z,57.70
2022-09-05T12:42:10.209Z,60.40
2022-09-05T12:44:29.838Z,57.30
2022-09-05T12:46:23.874Z,56.80
2022-09-05T12:49:06.820Z,57.10
2022-09-05T12:51:45.065Z,57.80
2022-09-05T12:54:34.740Z,57.20
2022-09-05T13:01:17.458Z,56.00
2022-09-05T13:03:11.270Z,57.30
2022-09-05T13:03:27.941Z,56.10
2022-09-05T13:06:24.671Z,55.50
2022-09-05T13:09:00.228Z,55.20
2022-09-05T13:15:02.697Z,55.30
2022-09-05T13:15:08.130Z,55.30
2022-09-05T13:18:04.018Z,54.40
2022-09-05T13:20:35.602Z,54.30
2022-09-05T13:23:32.299Z,53.60
2022-09-05T13:26:08.184Z,53.00
2022-09-05T13:28:51.336Z,54.10
2022-09-05T13:37:54.159Z,53.50
2022-09-05T13:38:01.203Z,51.80
2022-09-05T13:38:19.071Z,53.70
2022-09-05T13:40:24.855Z,52.10
2022-09-05T13:43:11.299Z,52.70
2022-09-05T13:46:11.642Z,52.20
2022-09-05T13:49:29.284Z,53.30
2022-09-05T13:52:26.396Z,52.40
2022-09-05T13:55:00.585Z,53.00
2022-09-05T13:57:43.658Z,52.60
2022-09-05T14:00:15.249Z,53.00
2022-09-05T14:03:39.307Z,52.70
2022-09-05T14:06:46.644Z,52.40
2022-09-05T14:09:42.360Z,51.40
2022-09-05T14:12:29.628Z,50.40
2022-09-05T14:15:10.011Z,51.30
2022-09-05T14:18:17.774Z,51.00
2022-09-05T14:21:16.840Z,51.30
2022-09-05T14:24:27.608Z,51.50
2022-09-05T14:27:11.612Z,51.20
2022-09-05T14:29:55.377Z,51.30
2022-09-05T14:37:43.763Z,51.20
2022-09-05T14:37:55.110Z,50.70
2022-09-05T14:38:28.701Z,51.30
2022-09-05T14:41:33.370Z,51.70
2022-09-05T14:44:19.186Z,52.90
2022-09-05T14:47:02.624Z,52.20
2022-09-05T14:49:55.501Z,51.20
2022-09-05T14:52:29.132Z,51.40
2022-09-05T15:02:53.944Z,50.60
2022-09-05T15:02:58.504Z,51.40
2022-09-05T15:06:33.097Z,50.30
2022-09-05T15:11:42.658Z,50.50
2022-09-05T15:12:23.643Z,51.20
2022-09-05T15:14:38.588Z,50.80
2022-09-05T15:17:06.455Z,51.30
2022-09-05T15:20:08.390Z,51.10
2022-09-05T15:22:39.867Z,50.00
2022-09-05T15:25:19.305Z,51.40
2022-09-05T15:27:47.505Z,51.40
2022-09-05T15:30:35.690Z,50.40
2022-09-05T15:33:25.459Z,50.70
2022-09-05T15:35:53.236Z,51.50
2022-09-05T15:38:29.110Z,50.10
2022-09-05T15:41:11.076Z,49.20
2022-09-05T15:43:51.714Z,49.40
2022-09-05T15:46:42.875Z,48.20
2022-09-05T15:49:23.772Z,49.30
2022-09-05T15:51:57.407Z,48.10
2022-09-05T15:54:37.902Z,49.50
2022-09-05T15:57:17.669Z,49.70
2022-09-05T15:59:49.405Z,50.00
2022-09-05T16:02:24.616Z,49.90
2022-09-05T16:10:34.677Z,49.20
2022-09-05T16:10:48.418Z,49.60
2022-09-05T16:11:59.544Z,49.40
2022-09-05T16:14:39.572Z,50.40
2022-09-05T16:23:13.282Z,50.70
2022-09-05T16:23:28.090Z,51.50
2022-09-05T16:23:53.514Z,53.00
2022-09-05T16:26:28.010Z,54.20
2022-09-05T16:29:25.248Z,55.20
2022-09-05T16:31:55.947Z,55.80
2022-09-05T16:35:01.315Z,57.30
2022-09-05T16:37:49.258Z,58.40
2022-09-05T16:40:25.160Z,56.50
2022-09-05T16:43:03.782Z,56.60
2022-09-05T16:45:55.969Z,55.40
2022-09-05T16:48:55.083Z,56.10
2022-09-05T16:51:36.298Z,56.20
2022-09-05T16:54:15.058Z,57.70
2022-09-05T16:56:56.238Z,59.80
2022-09-05T16:59:28.410Z,62.80
2022-09-05T17:02:23.003Z,64.60
2022-09-05T17:05:07.942Z,65.90
2022-09-05T17:08:05.950Z,62.70
2022-09-05T17:10:44.144Z,64.20
2022-09-05T17:13:36.814Z,65.90
2022-09-05T17:16:05.659Z,67.50
2022-09-05T17:18:35.442Z,68.10
2022-09-05T17:21:09.981Z,70.20
2022-09-05T17:29:24.162Z,70.30
2022-09-05T17:29:30.887Z,70.60
2022-09-05T17:31:27.731Z,71.20
2022-09-05T17:32:52.524Z,70.20
2022-09-05T17:35:47.250Z,66.80
2022-09-05T17:38:28.019Z,66.50
2022-09-05T17:41:27.362Z,66.60
2022-09-05T17:44:06.097Z,68.10
2022-09-05T17:46:41.795Z,68.20
2022-09-05T17:49:19.616Z,68.20
2022-09-05T17:52:16.688Z,69.30
2022-09-05T17:54:49.581Z,70.50
2022-09-05T17:57:29.370Z,70.90
2022-09-05T18:00:00.345Z,69.90
2022-09-05T18:02:34.000Z,71.30
2022-09-05T18:05:02.278Z,71.80
2022-09-05T18:07:29.529Z,71.00
2022-09-05T18:13:31.104Z,73.30
2022-09-05T18:15:39.428Z,74.50
2022-09-05T18:24:12.043Z,76.10
2022-09-05T18:26:46.922Z,76.80
2022-09-05T18:29:57.108Z,77.10
2022-09-05T18:32:33.706Z,78.00
2022-09-05T18:35:38.396Z,79.00
2022-09-05T18:38:16.104Z,80.50
2022-09-05T18:41:06.547Z,81.40
2022-09-05T18:44:14.056Z,82.10
2022-09-05T18:46:52.738Z,82.80
2022-09-05T18:50:23.786Z,83.20
2022-09-05T18:52:23.985Z,83.60
2022-09-05T18:56:09.254Z,84.00
2022-09-05T18:57:52.099Z,84.10
2022-09-05T19:00:40.068Z,84.30
2022-09-05T19:03:27.681Z,84.50
2022-09-05T19:06:34.541Z,84.90
2022-09-05T19:08:56.289Z,85.30
2022-09-05T19:11:53.943Z,85.60
2022-09-05T19:14:58.856Z,85.50
2022-09-05T19:17:37.277Z,85.80
2022-09-05T19:20:34.023Z,85.60
2022-09-05T19:23:22.432Z,85.50
2022-09-05T19:26:05.184Z,84.80
2022-09-05T19:35:58.703Z,83.80
2022-09-05T19:36:51.021Z,84.90
2022-09-05T19:37:09.793Z,86.00
2022-09-05T19:37:26.229Z,87.30
2022-09-05T19:42:49.515Z,88.00
2022-09-05T19:47:34.811Z,89.60
2022-09-05T19:47:42.807Z,89.00
2022-09-05T19:48:25.964Z,90.80
2022-09-05T19:50:57.694Z,91.80
2022-09-05T19:53:25.219Z,92.70
2022-09-05T19:55:53.980Z,93.40
2022-09-05T19:58:23.414Z,94.00
2022-09-05T20:01:04.954Z,94.80
2022-09-05T20:03:38.785Z,95.20
2022-09-05T20:06:35.267Z,95.90
2022-09-05T20:09:25.867Z,96.50
2022-09-05T20:11:58.333Z,97.10
2022-09-05T20:14:31.195Z,97.20
2022-09-05T20:17:21.192Z,97.60
2022-09-05T20:19:48.705Z,98.00
2022-09-05T20:22:48.729Z,98.20
2022-09-05T20:25:34.777Z,98.40
2022-09-05T20:28:09.989Z,98.60
2022-09-05T20:30:41.686Z,99.30
2022-09-05T20:33:14.667Z,99.40
2022-09-05T20:41:36.705Z,99.90
2022-09-05T20:43:18.014Z,99.90
2022-09-05T20:43:18.457Z,99.90
2022-09-05T20:44:41.589Z,99.90
2022-09-05T20:49:44.858Z,99.90
2022-09-05T20:54:21.352Z,99.90
2022-09-05T20:54:27.601Z,99.90
2022-09-05T20:56:05.732Z,99.90
2022-09-05T20:58:35.070Z,99.90
2022-09-05T21:01:21.031Z,99.90
2022-09-05T21:04:00.743Z,99.90
2022-09-05T21:06:41.724Z,99.90
2022-09-05T21:09:14.896Z,99.90
2022-09-05T21:11:45.412Z,99.90
2022-09-05T21:14:22.300Z,99.90
2022-09-05T21:17:13.352Z,99.90
2022-09-05T21:19:43.696Z,99.90
2022-09-05T21:22:23.905Z,99.90
2022-09-05T21:25:15.934Z,99.90
2022-09-05T21:28:05.774Z,99.90
2022-09-05T21:30:39.935Z,99.90
2022-09-05T21:33:18.166Z,99.90
2022-09-05T21:35:49.141Z,99.90
2022-09-05T21:38:32.264Z,99.90
2022-09-05T21:41:01.835Z,99.90
2022-09-05T21:47:38.962Z,99.90
2022-09-05T21:47:46.515Z,99.90
2022-09-05T21:49:04.213Z,99.90
2022-09-05T21:51:31.740Z,99.90
2022-09-05T21:58:13.039Z,99.90
2022-09-05T21:59:27.093Z,99.90
2022-09-05T21:59:55.678Z,99.90
2022-09-05T22:02:25.977Z,99.90
2022-09-05T22:05:02.137Z,99.90
2022-09-05T22:07:32.396Z,99.90
2022-09-05T22:10:04.653Z,99.90
2022-09-05T22:12:36.214Z,99.90
2022-09-05T22:15:26.333Z,99.90
2022-09-05T22:18:14.737Z,99.90
2022-09-05T22:20:44.370Z,99.90
2022-09-05T22:23:11.971Z,99.90
2022-09-05T22:25:39.732Z,99.90
2022-09-05T22:28:13.684Z,99.90
2022-09-05T22:30:40.734Z,99.90
2022-09-05T22:33:08.091Z,99.90
2022-09-05T22:35:37.420Z,99.90
2022-09-05T22:38:10.585Z,99.90
2022-09-05T22:40:40.174Z,99.90
2022-09-05T22:43:09.127Z,99.90
2022-09-05T22:45:38.006Z,99.90
2022-09-05T22:48:10.447Z,99.90
2022-09-05T22:50:38.087Z,99.90
2022-09-05T22:53:07.184Z,99.90
2022-09-05T22:55:39.540Z,99.90
2022-09-05T22:58:08.541Z,99.90
2022-09-05T23:00:36.378Z,99.90
2022-09-05T23:03:05.615Z,99.90
2022-09-05T23:05:33.540Z,99.90
2022-09-05T23:08:01.463Z,99.90
2022-09-05T23:10:30.012Z,99.90
2022-09-05T23:12:57.039Z,99.90
2022-09-05T23:15:24.803Z,99.90
2022-09-05T23:17:56.063Z,99.90
2022-09-05T23:20:24.767Z,99.90
2022-09-05T23:22:51.970Z,99.90
2022-09-05T23:25:19.431Z,99.90
2022-09-05T23:27:46.554Z,99.90
2022-09-05T23:30:14.070Z,99.90
2022-09-05T23:32:45.948Z,99.90
2022-09-05T23:35:13.620Z,99.90
2022-09-05T23:37:45.052Z,99.90
2022-09-05T23:40:13.802Z,99.90
2022-09-05T23:42:41.677Z,99.90
2022-09-05T23:45:09.883Z,99.90
2022-09-05T23:47:37.511Z,99.90
2022-09-05T23:50:05.374Z,99.90
2022-09-05T23:52:40.278Z,99.90
2022-09-05T23:55:07.665Z,99.90
2022-09-05T23:57:34.751Z,99.90
